createdAt,value
2018-07-20T04:59:01.750Z,66.03
2018-07-20T05:01:34.469Z,65.88
2018-07-20T05:04:04.656Z,65.58
2018-07-20T05:06:43.225Z,65.55
2018-07-20T05:09:13.381Z,64.72
2018-07-20T05:11:43.643Z,65.05
2018-07-20T05:14:13.594Z,65.49
2018-07-20T05:16:44.878Z,65.27
2018-07-20T05:19:15.514Z,64.73
2018-07-20T05:21:45.738Z,64.94
2018-07-20T05:24:15.712Z,65.18
2018-07-20T05:26:45.863Z,64.54
2018-07-20T05:29:16.387Z,65.15
2018-07-20T05:31:46.724Z,64.90
2018-07-20T05:34:17.811Z,64.71
2018-07-20T05:36:54.425Z,65.10
2018-07-20T05:39:25.530Z,64.99
2018-07-20T05:42:05.031Z,64.58
2018-07-20T05:44:36.904Z,64.46
2018-07-20T05:47:08.176Z,64.28
2018-07-20T05:49:54.437Z,63.84
2018-07-20T05:52:53.886Z,63.09
2018-07-20T05:55:32.258Z,62.80
2018-07-20T05:58:06.579Z,61.87
2018-07-20T06:00:51.008Z,61.30
2018-07-20T06:03:25.653Z,60.15
2018-07-20T06:06:00.734Z,58.55
2018-07-20T06:08:38.409Z,58.26
2018-07-20T06:11:12.027Z,58.45
2018-07-20T06:13:48.585Z,57.84
2018-07-20T06:16:23.952Z,57.76
2018-07-20T06:18:57.017Z,56.14
2018-07-20T06:21:33.108Z,55.38
2018-07-20T06:24:10.804Z,54.31
2018-07-20T06:26:49.952Z,54.11
2018-07-20T06:29:20.944Z,53.84
2018-07-20T06:31:53.232Z,53.35
2018-07-20T06:34:26.946Z,53.03
2018-07-20T06:37:07.533Z,52.49
2018-07-20T06:39:48.384Z,50.84
2018-07-20T06:42:28.635Z,51.62
2018-07-20T06:45:13.007Z,49.97
2018-07-20T06:47:53.400Z,49.91
2018-07-20T06:50:37.739Z,49.58
2018-07-20T06:53:08.072Z,50.17
2018-07-20T06:55:40.383Z,50.67
2018-07-20T06:58:10.366Z,51.48
2018-07-20T07:00:40.251Z,52.29
2018-07-20T07:03:10.430Z,52.05
2018-07-20T07:05:41.990Z,50.64
2018-07-20T07:08:12.001Z,50.06
2018-07-20T07:10:46.197Z,49.96
2018-07-20T07:13:16.014Z,48.96
2018-07-20T07:15:54.021Z,48.05
2018-07-20T07:18:32.291Z,47.29
2018-07-20T07:21:09.542Z,47.05
2018-07-20T07:23:40.302Z,47.26
2018-07-20T07:26:12.724Z,47.68
2018-07-20T07:28:46.903Z,47.17
2018-07-20T07:31:17.850Z,46.71
2018-07-20T07:33:48.059Z,45.70
2018-07-20T07:36:18.169Z,45.98
2018-07-20T07:38:48.630Z,45.36
2018-07-20T07:41:23.333Z,45.39
2018-07-20T07:43:53.831Z,45.38
2018-07-20T07:46:23.571Z,43.95
2018-07-20T07:48:53.754Z,44.58
2018-07-20T07:51:23.449Z,43.22
2018-07-20T07:53:53.793Z,44.11
2018-07-20T07:56:25.026Z,44.49
2018-07-20T07:58:54.848Z,43.05
2018-07-20T08:01:24.641Z,42.27
2018-07-20T08:03:55.761Z,42.65
2018-07-20T08:06:26.538Z,41.40
2018-07-20T08:08:56.428Z,41.54
2018-07-20T08:11:28.503Z,41.62
2018-07-20T08:13:58.323Z,41.74
2018-07-20T08:16:28.133Z,40.05
2018-07-20T08:18:57.900Z,40.42
2018-07-20T08:21:27.733Z,39.53
2018-07-20T08:23:57.668Z,39.24
2018-07-20T08:26:27.736Z,39.16
2018-07-20T08:28:57.461Z,38.69
2018-07-20T08:31:27.321Z,38.72
2018-07-20T08:33:57.103Z,38.08
2018-07-20T08:39:45.299Z,37.36
2018-07-20T08:42:15.172Z,36.69
2018-07-20T08:44:45.364Z,34.45
2018-07-20T08:47:15.509Z,32.34
2018-07-20T08:49:51.640Z,31.05
2018-07-20T08:52:21.490Z,30.69
2018-07-20T08:54:51.838Z,29.23
2018-07-20T08:57:21.719Z,28.00
2018-07-20T09:05:53.262Z,28.79
2018-07-20T09:08:37.850Z,27.55
2018-07-20T09:11:07.874Z,27.50
2018-07-20T09:13:38.142Z,25.25
2018-07-20T09:16:08.630Z,27.46
2018-07-20T09:18:39.637Z,26.17
2018-07-20T09:21:09.616Z,26.63
2018-07-20T09:23:39.711Z,25.76
2018-07-20T09:26:11.805Z,26.35
2018-07-20T09:28:42.745Z,23.28
2018-07-20T09:31:15.292Z,25.36
2018-07-20T09:33:45.482Z,24.32
2018-07-20T09:36:15.663Z,24.42
2018-07-20T09:38:49.022Z,24.69
2018-07-20T09:44:28.210Z,22.74
2018-07-20T09:46:58.740Z,24.51
2018-07-20T09:49:34.289Z,20.89
2018-07-20T09:52:11.034Z,22.64
2018-07-20T09:57:32.674Z,22.94
2018-07-20T10:00:07.355Z,22.13
2018-07-20T10:02:39.786Z,22.19
2018-07-20T10:05:10.035Z,21.94
2018-07-20T10:07:41.466Z,21.75
2018-07-20T10:10:11.679Z,21.83
2018-07-20T10:12:42.151Z,22.06
2018-07-20T10:15:15.493Z,22.81
2018-07-20T10:17:45.749Z,22.61
2018-07-20T10:20:21.629Z,22.13
2018-07-20T10:25:46.515Z,21.74
2018-07-20T10:28:18.966Z,21.43
2018-07-20T10:33:48.859Z,21.75
2018-07-20T10:36:35.363Z,22.85
2018-07-20T10:39:14.361Z,22.69
2018-07-20T10:41:45.129Z,22.43
2018-07-20T10:44:16.027Z,23.34
2018-07-20T10:46:47.371Z,24.16
2018-07-20T10:49:22.727Z,23.31
2018-07-20T10:55:13.874Z,24.08
2018-07-20T10:57:43.993Z,24.64
2018-07-20T11:00:15.705Z,24.88
2018-07-20T11:02:49.844Z,26.14
2018-07-20T11:05:20.290Z,24.08
2018-07-20T11:07:51.682Z,23.88
2018-07-20T11:13:30.138Z,23.62
2018-07-20T11:16:01.622Z,24.08
2018-07-20T11:18:32.382Z,23.49
2018-07-20T11:21:03.754Z,22.85
2018-07-20T11:23:35.370Z,22.84
2018-07-20T11:26:11.163Z,24.05
2018-07-20T11:28:44.180Z,24.12
2018-07-20T11:31:14.633Z,22.50
2018-07-20T11:33:44.862Z,22.63
2018-07-20T11:36:15.187Z,22.53
2018-07-20T11:38:50.311Z,22.81
2018-07-20T11:41:24.887Z,22.27
2018-07-20T11:43:56.341Z,22.56
2018-07-20T11:46:27.068Z,23.11
2018-07-20T11:49:02.894Z,21.89
2018-07-20T11:51:38.449Z,21.40
2018-07-20T11:54:08.413Z,19.71
2018-07-20T11:56:38.244Z,18.89
2018-07-20T11:59:08.156Z,19.27
2018-07-20T12:01:39.177Z,19.85
2018-07-20T12:04:12.356Z,21.50
2018-07-20T12:06:44.453Z,20.53
2018-07-20T12:09:14.561Z,20.46
2018-07-20T12:11:44.895Z,20.31
2018-07-20T12:14:18.108Z,20.37
2018-07-20T12:16:50.156Z,20.93
2018-07-20T12:19:30.614Z,20.46
2018-07-20T12:22:07.587Z,21.43
2018-07-20T12:24:39.435Z,21.31
2018-07-20T12:27:09.606Z,21.33
2018-07-20T12:29:39.571Z,20.49
2018-07-20T12:32:09.667Z,21.04
2018-07-20T12:34:39.963Z,21.49
2018-07-20T12:37:10.076Z,19.46
2018-07-20T12:39:39.947Z,19.89
2018-07-20T12:42:09.704Z,18.83
2018-07-20T12:44:39.715Z,20.02
2018-07-20T12:47:09.489Z,21.29
2018-07-20T12:49:39.248Z,22.20
2018-07-20T12:52:09.282Z,22.30
2018-07-20T12:54:39.738Z,21.60
2018-07-20T12:57:10.142Z,21.06
2018-07-20T12:59:43.222Z,21.11
2018-07-20T13:02:13.287Z,19.99
2018-07-20T13:04:45.436Z,21.25
2018-07-20T13:07:49.551Z,21.16
2018-07-20T13:10:19.519Z,22.11
2018-07-20T13:12:49.384Z,21.55
2018-07-20T13:15:24.488Z,19.56
2018-07-20T13:17:54.485Z,19.14
2018-07-20T13:20:24.508Z,17.52
2018-07-20T13:22:54.449Z,19.17
2018-07-20T13:25:24.375Z,19.17
2018-07-20T13:27:56.140Z,19.31
2018-07-20T13:30:27.940Z,17.31
2018-07-20T13:32:58.027Z,16.24
2018-07-20T13:35:28.160Z,16.55
2018-07-20T13:37:58.481Z,18.46
2018-07-20T13:40:29.851Z,21.08
2018-07-20T13:43:26.746Z,21.45
2018-07-20T13:45:58.557Z,19.81
2018-07-20T13:48:28.414Z,20.08
2018-07-20T13:50:58.572Z,20.46
2018-07-20T13:53:28.549Z,19.84
2018-07-20T13:56:23.910Z,15.71
2018-07-20T13:58:54.115Z,16.67
2018-07-20T14:01:24.358Z,18.01
2018-07-20T14:03:54.747Z,19.49
2018-07-20T14:06:33.113Z,16.96
2018-07-20T14:09:03.260Z,17.81
2018-07-20T14:11:33.890Z,19.91
2018-07-20T14:14:08.998Z,21.04
2018-07-20T14:17:15.124Z,23.32
2018-07-20T14:19:49.049Z,24.17
2018-07-20T14:22:20.257Z,24.20
2018-07-20T14:24:51.517Z,23.13
2018-07-20T14:27:22.891Z,22.71
2018-07-20T14:29:55.142Z,22.35
2018-07-20T14:32:26.572Z,21.52
2018-07-20T14:34:57.345Z,19.78
2018-07-20T14:37:30.710Z,20.62
2018-07-20T14:40:01.814Z,20.29
2018-07-20T14:42:41.077Z,20.33
2018-07-20T14:45:12.645Z,21.35
2018-07-20T14:47:52.226Z,22.03
2018-07-20T14:50:22.470Z,23.39
2018-07-20T14:52:52.560Z,24.34
2018-07-20T14:55:23.177Z,24.21
2018-07-20T14:57:54.746Z,26.01
2018-07-20T15:00:26.525Z,24.58
2018-07-20T15:02:57.523Z,26.02
2018-07-20T15:05:29.664Z,25.13
2018-07-20T15:08:09.895Z,27.17
2018-07-20T15:10:40.713Z,26.66
2018-07-20T15:13:16.293Z,26.51
2018-07-20T15:15:47.999Z,26.58
2018-07-20T15:18:19.969Z,26.70
2018-07-20T15:20:49.927Z,27.32
2018-07-20T15:23:20.611Z,27.40
2018-07-20T15:25:52.695Z,27.27
2018-07-20T15:28:22.452Z,27.34
2018-07-20T15:30:56.175Z,26.83
2018-07-20T15:33:26.237Z,28.47
2018-07-20T15:35:58.055Z,28.32
2018-07-20T15:38:28.605Z,28.72
2018-07-20T15:41:01.126Z,29.35
2018-07-20T15:43:53.687Z,32.46
2018-07-20T15:46:24.308Z,36.72
2018-07-20T15:48:55.038Z,37.84
2018-07-20T15:54:21.197Z,39.80
2018-07-20T15:56:57.777Z,40.45
2018-07-20T15:59:27.620Z,42.68
2018-07-20T16:02:07.360Z,43.60
2018-07-20T16:07:34.583Z,44.49
2018-07-20T16:10:05.516Z,45.29
2018-07-20T16:12:36.123Z,45.63
2018-07-20T16:15:06.819Z,47.37
2018-07-20T16:18:46.103Z,50.15
2018-07-20T16:21:16.013Z,52.42
2018-07-20T16:24:09.098Z,53.41
2018-07-20T16:26:41.801Z,53.13
2018-07-20T16:29:11.686Z,53.46
2018-07-20T16:31:41.665Z,54.13
2018-07-20T16:34:11.582Z,53.94
2018-07-20T16:36:41.351Z,53.44
2018-07-20T16:39:11.839Z,53.17
2018-07-20T16:41:42.097Z,53.28
2018-07-20T16:44:13.147Z,53.08
2018-07-20T16:46:44.540Z,53.12
2018-07-20T16:49:14.424Z,51.92
2018-07-20T16:57:28.700Z,51.56
2018-07-20T16:59:59.950Z,50.52
2018-07-20T17:02:29.870Z,50.29
2018-07-20T17:05:06.164Z,49.67
2018-07-20T17:07:42.082Z,50.16
2018-07-20T17:10:12.449Z,50.40
2018-07-20T17:12:44.099Z,48.72
2018-07-20T17:15:14.945Z,48.75
2018-07-20T17:17:46.364Z,47.88
2018-07-20T17:20:16.308Z,48.29
2018-07-20T17:22:46.901Z,48.25
2018-07-20T17:25:16.913Z,48.62
2018-07-20T17:30:52.679Z,49.10
2018-07-20T17:33:25.359Z,49.35
2018-07-20T17:36:03.535Z,49.94
2018-07-20T17:41:12.631Z,50.71
2018-07-20T17:43:43.740Z,50.92
2018-07-20T17:46:40.107Z,51.44
2018-07-20T17:55:15.737Z,52.69
2018-07-20T17:57:54.473Z,52.79
2018-07-20T18:03:25.109Z,52.63
2018-07-20T18:05:55.494Z,52.99
2018-07-20T18:13:52.104Z,52.91
2018-07-20T18:16:22.403Z,53.13
2018-07-20T18:18:57.335Z,54.06
2018-07-20T18:21:30.873Z,53.78
2018-07-20T18:24:06.320Z,54.32
2018-07-20T18:26:42.660Z,53.66
2018-07-20T18:29:13.580Z,53.66
2018-07-20T18:32:01.368Z,54.45
2018-07-20T18:34:34.159Z,54.14
2018-07-20T18:39:57.199Z,54.72
2018-07-20T18:45:27.970Z,55.68
2018-07-20T18:47:58.733Z,56.05
2018-07-20T18:51:13.081Z,56.12
2018-07-20T18:53:47.201Z,56.93
2018-07-20T18:56:20.349Z,57.29
2018-07-20T18:58:53.291Z,57.02
2018-07-20T19:01:48.565Z,57.15
2018-07-20T19:04:21.101Z,57.91
2018-07-20T19:06:51.969Z,58.19
2018-07-20T19:09:29.745Z,58.26
2018-07-20T19:12:03.184Z,58.85
2018-07-20T19:17:31.379Z,59.15
2018-07-20T19:20:12.892Z,58.97
2018-07-20T19:22:45.053Z,58.73
2018-07-20T19:25:27.777Z,58.61
2018-07-20T19:27:57.787Z,58.34
2018-07-20T19:30:28.102Z,57.72
2018-07-20T19:33:00.874Z,57.92
2018-07-20T19:35:33.407Z,57.44
2018-07-20T19:46:50.640Z,57.83
2018-07-20T19:49:31.772Z,57.04
2018-07-20T19:52:04.493Z,57.46
2018-07-20T19:54:41.461Z,57.29
2018-07-20T19:57:14.851Z,58.15
2018-07-20T19:59:49.224Z,58.46
2018-07-20T20:02:19.609Z,58.19
2018-07-20T20:04:55.247Z,58.00
2018-07-20T20:07:35.115Z,58.23
2018-07-20T20:10:07.126Z,58.78
2018-07-20T20:12:39.058Z,59.40
2018-07-20T20:15:10.930Z,60.07
2018-07-20T20:17:43.295Z,59.57
2018-07-20T20:20:21.790Z,59.31
2018-07-20T20:22:59.448Z,59.45
2018-07-20T20:25:36.342Z,58.94
2018-07-20T20:28:14.904Z,58.97
2018-07-20T20:31:01.507Z,60.12
2018-07-20T20:33:41.768Z,60.46
2018-07-20T20:36:24.829Z,60.64
2018-07-20T20:38:55.538Z,60.54
2018-07-20T20:41:35.477Z,60.33
2018-07-20T20:44:24.453Z,60.51
2018-07-20T20:46:58.284Z,61.03
2018-07-20T20:49:28.228Z,61.32
2018-07-20T20:52:00.581Z,61.70
2018-07-20T20:54:48.034Z,61.49
2018-07-20T20:57:19.989Z,61.67
2018-07-20T20:59:51.100Z,61.99
2018-07-20T21:02:25.081Z,62.40
2018-07-20T21:04:55.563Z,62.38
2018-07-20T21:07:25.496Z,62.69
2018-07-20T21:09:56.265Z,62.48
2018-07-20T21:12:26.929Z,63.10
2018-07-20T21:14:57.068Z,63.13
2018-07-20T21:17:27.724Z,63.32
2018-07-20T21:19:58.668Z,63.71
2018-07-20T21:25:13.502Z,63.52
2018-07-20T21:27:43.350Z,63.59
2018-07-20T21:30:14.928Z,64.27
2018-07-20T21:32:44.718Z,64.21
2018-07-20T21:35:15.054Z,64.78
2018-07-20T21:37:44.900Z,65.01
2018-07-20T21:40:17.173Z,64.97
2018-07-20T21:42:50.696Z,64.95
2018-07-20T21:45:20.982Z,65.83
2018-07-20T21:47:52.239Z,66.14
2018-07-20T21:50:23.618Z,66.34
2018-07-20T21:52:53.659Z,66.42
2018-07-20T21:55:23.571Z,66.28
2018-07-20T21:57:54.031Z,66.05
2018-07-20T22:00:24.726Z,66.57
2018-07-20T22:02:54.453Z,66.05
2018-07-20T22:05:24.186Z,66.50
2018-07-20T22:07:54.279Z,66.83
2018-07-20T22:10:24.380Z,67.12
2018-07-20T22:12:54.330Z,67.27
2018-07-20T22:15:29.368Z,67.51
2018-07-20T22:17:59.388Z,67.33
2018-07-20T22:20:29.293Z,67.62
2018-07-20T22:22:59.110Z,68.23
2018-07-20T22:25:30.242Z,67.66
2018-07-20T22:28:00.544Z,68.07
2018-07-20T22:30:30.222Z,68.19
2018-07-20T22:33:00.380Z,68.39
2018-07-20T22:35:30.156Z,69.15
2018-07-20T22:37:59.987Z,69.26
2018-07-20T22:40:29.795Z,69.31
2018-07-20T22:43:05.451Z,69.79
2018-07-20T22:45:35.275Z,69.75
2018-07-20T22:48:05.103Z,70.52
2018-07-20T22:50:38.623Z,70.55
2018-07-20T22:53:08.358Z,71.18
2018-07-20T22:55:38.280Z,71.51
2018-07-20T22:58:08.154Z,71.37
2018-07-20T23:00:38.580Z,71.40
2018-07-20T23:03:08.403Z,71.63
2018-07-20T23:05:38.188Z,71.23
2018-07-20T23:08:08.439Z,71.87
2018-07-20T23:10:38.831Z,72.12
2018-07-20T23:13:08.564Z,72.35
2018-07-20T23:15:40.833Z,72.33
2018-07-20T23:18:10.652Z,72.74
2018-07-20T23:20:40.412Z,72.68
2018-07-20T23:23:10.277Z,73.06
2018-07-20T23:25:40.325Z,72.99
2018-07-20T23:28:10.188Z,73.55
2018-07-20T23:30:39.921Z,73.93
2018-07-20T23:33:10.430Z,74.11
2018-07-20T23:35:40.380Z,74.16
2018-07-20T23:38:10.324Z,74.69
2018-07-20T23:40:44.073Z,74.03
2018-07-20T23:43:14.054Z,75.07
2018-07-20T23:45:44.094Z,74.84
2018-07-20T23:48:18.107Z,75.10
2018-07-20T23:50:53.219Z,74.58
2018-07-20T23:53:23.285Z,75.32
2018-07-20T23:55:54.554Z,75.21
2018-07-20T23:58:24.377Z,75.50
